.
WxDataArchive / Data Records for 2007-08-01
2007-07-31 August 2007 2007-08-02

Data Records for Wednesday, 01 August 2007

Time	Temp	Chill	HIndex	Humid	Dewpt	 Wind 	HiWind	WindDir	Rain 	Barom 
-----	----	-----	------	-----	-----	------	------	-------	-----	----- 
00:00	71.8	71.8	71.8	83	66.3	0	0	---	0.00	29.956 
00:05	71.6	71.6	71.6	84	66.5	0	0	---	0.00	29.957 
00:10	71.5	71.5	71.5	84	66.4	0	0	---	0.00	29.956 
00:15	71.3	71.3	71.3	84	66.2	0	0	---	0.00	29.957 
00:20	71.1	71.1	71.1	85	66.4	0	0	---	0.00	29.958 
00:25	71.1	71.1	71.1	85	66.4	0	0	---	0.00	29.958 
00:30	70.9	70.9	70.9	85	66.2	0	0	---	0.00	29.957 
00:35	70.9	70.9	70.9	85	66.2	0	0	---	0.00	29.957 
00:40	70.8	70.8	70.8	86	66.4	0	0	---	0.00	29.957 
00:45	70.6	70.6	70.6	86	66.2	0	0	---	0.00	29.956 
00:50	70.4	70.4	70.4	87	66.3	0	0	---	0.00	29.955 
00:55	70.4	70.4	70.4	88	66.7	0	0	---	0.00	29.954 
01:00	70.3	70.3	70.3	88	66.6	0	0	---	0.00	29.953 
01:05	70.1	70.1	70.1	88	66.4	0	0	---	0.00	29.951 
01:10	69.9	69.9	69.9	88	66.2	0	0	---	0.00	29.952 
01:15	69.8	69.8	69.8	89	66.4	0	0	---	0.00	29.952 
01:20	69.6	69.6	69.6	89	66.2	0	0	---	0.00	29.952 
01:25	69.4	69.4	69.4	89	66.0	0	0	---	0.00	29.955 
01:30	69.4	69.4	69.4	89	66.0	0	0	---	0.00	29.957 
01:35	69.3	69.3	69.3	89	65.9	0	0	---	0.00	29.957 
01:40	69.1	69.1	69.1	90	66.0	0	0	---	0.00	29.957 
01:45	69.1	69.1	69.1	90	66.0	0	0	---	0.00	29.954 
01:50	68.9	68.9	68.9	91	66.2	0	0	---	0.00	29.956 
01:55	68.9	68.9	68.9	91	66.2	0	0	---	0.00	29.959 
02:00	68.9	68.9	68.9	91	66.2	0	0	---	0.00	29.959 
02:05	68.8	68.8	68.8	92	66.4	0	0	---	0.00	29.956 
02:10	68.8	68.8	68.8	92	66.4	0	0	---	0.00	29.954 
02:15	68.6	68.6	68.6	92	66.2	0	0	---	0.00	29.956 
02:20	68.4	68.4	68.4	92	66.0	0	0	---	0.00	29.955 
02:25	68.4	68.4	68.4	92	66.0	0	0	---	0.00	29.957 
02:30	68.3	68.3	68.3	92	65.9	0	0	---	0.00	29.955 
02:35	68.3	68.3	68.3	92	65.9	0	0	---	0.00	29.956 
02:40	68.1	68.1	68.1	92	65.7	0	0	---	0.00	29.954 
02:45	68.1	68.1	68.1	92	65.7	0	0	---	0.00	29.953 
02:50	68.1	68.1	68.1	92	65.7	0	0	---	0.00	29.953 
02:55	67.9	67.9	67.9	92	65.5	0	0	---	0.00	29.952 
03:00	67.9	67.9	67.9	92	65.5	0	0	---	0.00	29.950 
03:05	67.8	67.8	67.8	92	65.4	0	0	---	0.00	29.950 
03:10	67.8	67.8	67.8	93	65.7	0	0	---	0.00	29.950 
03:15	67.8	67.8	67.8	93	65.7	0	0	---	0.00	29.948 
03:20	67.6	67.6	67.6	93	65.5	0	0	---	0.00	29.947 
03:25	67.6	67.6	67.6	93	65.5	0	0	---	0.00	29.946 
03:30	67.4	67.4	67.4	93	65.3	0	0	---	0.00	29.947 
03:35	67.4	67.4	67.4	93	65.3	0	0	---	0.00	29.947 
03:40	67.3	67.3	67.3	94	65.5	0	0	---	0.00	29.947 
03:45	67.3	67.3	67.3	94	65.5	0	0	---	0.00	29.948 
03:50	67.1	67.1	67.1	94	65.3	0	0	---	0.00	29.948 
03:55	67.1	67.1	67.1	94	65.3	0	0	---	0.00	29.949 
04:00	67.1	67.1	67.1	94	65.3	0	0	---	0.00	29.948 
04:05	67.1	67.1	67.1	94	65.3	0	0	---	0.00	29.948 
04:10	66.9	66.9	66.9	94	65.1	0	0	---	0.00	29.948 
04:15	66.8	66.8	66.8	94	65.0	0	0	---	0.00	29.947 
04:20	66.8	66.8	66.8	94	65.0	0	0	---	0.00	29.947 
04:25	66.6	66.6	66.6	94	64.8	0	0	---	0.00	29.947 
04:30	66.6	66.6	66.6	94	64.8	0	0	---	0.00	29.948 
04:35	66.4	66.4	66.4	94	64.6	0	0	---	0.00	29.949 
04:40	66.4	66.4	66.4	94	64.6	0	0	---	0.00	29.949 
04:45	66.4	66.4	66.4	94	64.6	0	0	---	0.00	29.949 
04:50	66.4	66.4	66.4	95	64.9	0	0	---	0.00	29.950 
04:55	66.3	66.3	66.3	95	64.8	0	0	---	0.00	29.950 
05:00	66.3	66.3	66.3	95	64.8	0	0	---	0.00	29.950 
05:05	66.1	66.1	66.1	95	64.6	0	0	---	0.00	29.950 
05:10	66.1	66.1	66.1	95	64.6	0	0	---	0.00	29.952 
05:15	66.0	66.0	66.0	95	64.5	0	0	---	0.00	29.953 
05:20	66.0	66.0	66.0	95	64.5	0	0	---	0.00	29.953 
05:25	65.8	65.8	65.8	95	64.3	0	0	---	0.00	29.954 
05:30	65.8	65.8	65.8	95	64.3	0	0	---	0.00	29.955 
05:35	65.8	65.8	65.8	95	64.3	0	0	---	0.00	29.953 
05:40	65.6	65.6	65.6	95	64.1	0	0	---	0.00	29.956 
05:45	65.6	65.6	65.6	95	64.1	0	0	---	0.00	29.959 
05:50	65.6	65.6	65.6	95	64.1	0	0	---	0.00	29.957 
05:55	65.6	65.6	65.6	95	64.1	0	0	---	0.00	29.957 
06:00	65.6	65.6	65.6	95	64.1	0	0	---	0.00	29.960 
06:05	65.6	65.6	65.6	96	64.4	0	0	---	0.00	29.963 
06:10	65.6	65.6	65.6	96	64.4	0	0	---	0.00	29.964 
06:15	65.8	65.8	65.8	96	64.6	0	0	---	0.00	29.965 
06:20	66.0	66.0	66.0	96	64.8	0	0	---	0.00	29.965 
06:25	66.1	66.1	66.1	96	64.9	0	0	---	0.00	29.966 
06:30	66.3	66.3	66.3	96	65.1	0	0	---	0.00	29.966 
06:35	66.6	66.6	66.6	96	65.4	0	0	---	0.00	29.966 
06:40	66.9	66.9	66.9	96	65.7	0	0	---	0.00	29.965 
06:45	67.4	67.4	67.4	96	66.2	0	0	---	0.00	29.964 
06:50	67.8	67.8	67.8	96	66.6	0	0	---	0.00	29.963 
06:55	68.6	68.6	68.6	96	67.4	0	0	---	0.00	29.963 
07:00	69.1	69.1	69.1	93	67.0	0	0	---	0.00	29.962 
07:05	69.6	69.6	69.6	91	66.8	0	0	---	0.00	29.968 
07:10	70.3	70.3	70.3	87	66.2	0	0	---	0.00	29.968 
07:15	70.9	70.9	70.9	84	65.8	0	0	---	0.00	29.967 
07:20	71.6	71.6	71.6	83	66.2	0	0	---	0.00	29.965 
07:25	72.3	72.3	72.3	80	65.8	0	0	---	0.00	29.965 
07:30	73.0	73.0	73.0	78	65.7	0	0	---	0.00	29.968 
07:35	73.5	73.5	73.5	76	65.5	0	0	---	0.00	29.972 
07:40	73.9	73.9	73.9	75	65.5	0	0	---	0.00	29.975 
07:45	74.4	74.4	74.4	74	65.6	0	1	90	0.00	29.974 
07:50	74.9	74.9	74.9	72	65.2	0	1	90	0.00	29.974 
07:55	75.4	75.4	76.7	74	66.5	0	0	---	0.00	29.975 
08:00	75.8	75.8	77.3	73	66.5	0	0	---	0.00	29.974 
08:05	76.1	76.1	77.7	72	66.4	0	0	---	0.00	29.977 
08:10	76.7	76.7	78.4	71	66.6	0	1	90	0.00	29.979 
08:15	77.2	77.2	79.0	67	65.4	0	1	90	0.00	29.979 
08:20	78.1	78.1	80.0	66	65.8	0	0	---	0.00	29.978 
08:25	78.8	78.8	80.7	63	65.1	0	1	90	0.00	29.978 
08:30	79.4	79.4	81.5	64	66.1	0	1	90	0.00	29.979 
08:35	79.9	79.9	82.1	64	66.6	0	1	90	0.00	29.979 
08:40	80.3	80.3	82.8	65	67.4	0	1	90	0.00	29.979 
08:45	80.5	80.5	82.7	62	66.3	0	1	90	0.00	29.977 
08:50	80.7	80.7	83.1	63	66.9	0	1	90	0.00	29.977 
08:55	80.7	80.7	82.8	61	66.0	0	1	90	0.00	29.977 
09:00	80.9	80.9	83.2	62	66.6	0	1	90	0.00	29.977 
09:05	81.1	81.1	83.5	62	66.8	0	1	90	0.00	29.976 
09:10	81.4	81.4	83.8	61	66.6	0	2	90	0.00	29.976 
09:15	81.6	81.6	83.5	58	65.4	1	1	68	0.00	29.976 
09:20	81.8	81.8	84.0	59	66.0	0	1	68	0.00	29.978 
09:25	82.0	82.0	84.2	59	66.2	1	2	68	0.00	29.978 
09:30	82.2	82.2	84.3	58	65.9	1	2	292	0.00	29.978 
09:35	82.6	82.6	85.1	59	66.8	1	2	292	0.00	29.978 
09:40	83.2	83.2	85.6	57	66.4	1	3	248	0.00	29.977 
09:45	83.4	83.4	85.6	56	66.0	1	2	248	0.00	29.978 
09:50	84.0	84.0	87.0	58	67.6	0	2	248	0.00	29.978 
09:55	84.3	84.3	86.2	53	65.3	1	2	248	0.00	29.979 
10:00	84.5	84.5	87.0	55	66.5	1	3	248	0.00	29.978 
10:05	84.7	84.7	87.0	54	66.2	1	2	248	0.00	29.978 
10:10	85.1	85.1	87.9	55	67.1	0	2	248	0.00	29.978 
10:15	85.5	85.5	88.0	53	66.4	0	2	270	0.00	29.979 
10:20	85.7	85.7	88.3	53	66.6	0	2	248	0.00	29.977 
10:25	85.9	85.9	88.0	51	65.6	1	4	248	0.00	29.977 
10:30	85.9	85.9	87.5	49	64.5	1	2	248	0.00	29.978 
10:35	86.3	86.3	88.9	52	66.6	1	3	248	0.00	29.978 
10:40	86.7	86.7	88.3	48	64.6	1	2	270	0.00	29.978 
10:45	87.0	87.0	89.1	49	65.5	1	2	270	0.00	29.977 
10:50	87.2	87.2	89.4	49	65.7	1	3	270	0.00	29.977 
10:55	87.6	87.6	89.4	47	64.8	1	2	270	0.00	29.977 
11:00	87.4	87.4	89.1	47	64.7	1	2	270	0.00	29.976 
11:05	87.4	87.4	90.1	50	66.4	1	2	270	0.00	29.977 
11:10	87.8	87.8	89.4	46	64.4	0	2	315	0.00	29.976 
11:15	88.2	88.2	90.3	47	65.4	0	2	315	0.00	29.975 
11:20	88.4	88.4	90.3	46	64.9	1	2	315	0.00	29.975 
11:25	88.6	88.6	91.0	47	65.7	0	1	315	0.00	29.974 
11:30	88.8	88.8	91.3	47	65.9	0	3	315	0.00	29.974 
11:35	88.8	88.8	90.9	46	65.3	1	3	68	0.00	29.973 
11:40	89.3	89.3	92.5	48	67.0	0	1	68	0.00	29.971 
11:45	89.0	89.0	92.4	49	67.3	0	1	68	0.00	29.971 
11:50	89.5	89.5	92.1	46	65.9	1	3	68	0.00	29.968 
11:55	89.7	89.7	92.0	45	65.5	1	3	68	0.00	29.965 
12:00	90.1	90.1	92.7	45	65.9	0	2	68	0.00	29.965 
12:05	90.3	90.3	93.0	45	66.0	0	1	68	0.00	29.964 
12:10	90.5	90.5	92.9	44	65.6	0	2	68	0.00	29.963 
12:15	90.7	90.7	92.9	43	65.1	1	2	68	0.00	29.962 
12:20	90.5	90.5	92.9	44	65.6	1	3	68	0.00	29.962 
12:25	90.3	90.3	93.4	46	66.7	1	3	112	0.00	29.962 
12:30	90.5	90.5	93.8	46	66.8	1	2	338	0.00	29.962 
12:35	90.3	90.3	92.6	44	65.4	0	2	338	0.00	29.962 
12:40	90.3	90.3	91.8	42	64.0	1	3	22	0.00	29.961 
12:45	89.9	89.9	92.3	45	65.7	2	4	45	0.00	29.961 
12:50	90.1	90.1	93.1	46	66.5	0	1	45	0.00	29.961 
12:55	89.5	89.5	90.6	42	63.3	0	2	0	0.00	29.962 
13:00	88.8	88.8	90.2	44	64.0	0	2	0	0.00	29.964 
13:05	88.4	88.4	89.3	43	63.0	0	0	---	0.00	29.965 
13:10	88.2	88.2	88.7	42	62.2	0	1	0	0.00	29.965 
13:15	88.8	88.8	89.9	43	63.4	1	4	90	0.00	29.961 
13:20	89.7	89.7	92.0	45	65.5	0	1	90	0.00	29.960 
13:25	90.1	90.1	90.8	40	62.5	1	3	90	0.00	29.958 
13:30	90.7	90.7	92.5	42	64.4	0	2	90	0.00	29.955 
13:35	91.2	91.2	91.8	38	62.0	0	2	90	0.00	29.952 
13:40	91.4	91.4	92.8	40	63.6	0	2	90	0.00	29.949 
13:45	91.6	91.6	94.4	43	65.9	0	1	90	0.00	29.949 
13:50	91.6	91.6	92.7	39	63.1	1	3	90	0.00	29.949 
13:55	91.6	91.6	92.4	38	62.3	1	3	90	0.00	29.949 
14:00	91.6	91.6	92.7	39	63.1	1	2	90	0.00	29.948 
14:05	91.8	91.8	93.1	39	63.3	0	3	90	0.00	29.947 
14:10	91.8	91.8	93.1	39	63.3	1	4	90	0.00	29.947 
14:15	91.4	91.4	92.1	38	62.2	1	2	68	0.00	29.947 
14:20	91.4	91.4	92.8	40	63.6	1	3	315	0.00	29.947 
14:25	91.8	91.8	93.4	40	64.0	0	1	315	0.00	29.945 
14:30	92.5	92.5	95.0	41	65.3	1	3	315	0.00	29.942 
14:35	92.7	92.7	94.9	40	64.8	1	3	112	0.00	29.937 
14:40	92.5	92.5	94.2	39	63.9	1	4	112	0.00	29.936 
14:45	91.8	91.8	93.1	39	63.3	0	2	112	0.00	29.935 
14:50	91.2	91.2	92.1	39	62.7	1	3	112	0.00	29.935 
14:55	90.5	90.5	91.4	40	62.8	0	1	112	0.00	29.932 
15:00	91.0	91.0	92.2	40	63.3	1	4	112	0.00	29.933 
15:05	91.2	91.2	92.1	39	62.7	1	3	90	0.00	29.932 
15:10	91.2	91.2	92.1	39	62.7	1	2	90	0.00	29.932 
15:15	91.4	91.4	91.7	37	61.4	1	5	90	0.00	29.930 
15:20	91.8	91.8	92.7	38	62.5	1	2	90	0.00	29.929 
15:25	92.1	92.1	92.4	36	61.3	1	3	90	0.00	29.926 
15:30	92.3	92.3	93.1	37	62.2	0	2	90	0.00	29.923 
15:35	92.5	92.5	93.0	36	61.6	1	4	90	0.00	29.921 
15:40	92.1	92.1	92.4	36	61.3	2	4	90	0.00	29.922 
15:45	91.8	91.8	91.6	35	60.2	1	5	90	0.00	29.920 
15:50	91.4	91.4	91.4	36	60.6	2	7	68	0.00	29.921 
15:55	91.6	91.6	92.7	39	63.1	1	4	68	0.00	29.921 
16:00	91.4	91.4	92.1	38	62.2	1	4	90	0.00	29.919 
16:05	91.4	91.4	92.8	40	63.6	1	3	90	0.00	29.921 
16:10	91.6	91.6	92.0	37	61.6	1	3	112	0.00	29.918 
16:15	91.4	91.4	92.1	38	62.2	1	4	90	0.00	29.917 
16:20	91.4	91.4	91.4	36	60.6	1	4	90	0.00	29.919 
16:25	91.4	91.4	92.1	38	62.2	1	2	90	0.00	29.918 
16:30	91.2	91.2	91.4	37	61.2	2	4	90	0.00	29.917 
16:35	91.0	91.0	91.8	39	62.6	1	3	90	0.00	29.917 
16:40	91.0	91.0	91.5	38	61.8	1	4	90	0.00	29.916 
16:45	91.0	91.0	91.8	39	62.6	0	2	90	0.00	29.913 
16:50	91.0	91.0	92.2	40	63.3	1	4	90	0.00	29.915 
16:55	90.7	90.7	91.0	38	61.6	1	3	135	0.00	29.915 
17:00	90.5	90.5	91.1	39	62.1	1	4	90	0.00	29.916 
17:05	90.5	90.5	91.1	39	62.1	0	2	90	0.00	29.915 
17:10	90.3	90.3	91.5	41	63.4	1	3	90	0.00	29.915 
17:15	90.1	90.1	91.2	41	63.2	0	1	270	0.00	29.915 
17:20	90.1	90.1	91.2	41	63.2	1	2	270	0.00	29.913 
17:25	89.9	89.9	90.2	39	61.6	1	3	22	0.00	29.909 
17:30	89.7	89.7	89.9	39	61.4	1	3	22	0.00	29.906 
17:35	89.5	89.5	90.0	40	61.9	1	3	68	0.00	29.905 
17:40	89.5	89.5	90.3	41	62.6	0	2	68	0.00	29.904 
17:45	89.3	89.3	90.3	42	63.2	0	1	68	0.00	29.905 
17:50	89.3	89.3	90.3	42	63.2	0	2	68	0.00	29.905 
17:55	89.0	89.0	89.9	42	62.9	0	1	68	0.00	29.907 
18:00	89.0	89.0	90.2	43	63.6	0	1	68	0.00	29.908 
18:05	88.8	88.8	89.6	42	62.7	0	2	68	0.00	29.905 
18:10	88.8	88.8	88.7	39	60.6	0	2	68	0.00	29.905 
18:15	88.8	88.8	89.9	43	63.4	0	1	68	0.00	29.907 
18:20	88.6	88.6	89.3	42	62.5	0	1	68	0.00	29.909 
18:25	88.4	88.4	89.0	42	62.3	0	0	---	0.00	29.909 
18:30	88.4	88.4	89.3	43	63.0	0	1	68	0.00	29.908 
18:35	88.2	88.2	89.7	45	64.1	0	0	---	0.00	29.906 
18:40	88.0	88.0	89.4	45	64.0	0	0	---	0.00	29.906 
18:45	87.6	87.6	88.5	44	63.0	0	0	---	0.00	29.905 
18:50	87.4	87.4	88.8	46	64.0	0	0	---	0.00	29.905 
18:55	87.2	87.2	88.5	46	63.9	0	0	---	0.00	29.906 
19:00	86.7	86.7	87.8	46	63.4	0	0	---	0.00	29.905 
19:05	86.5	86.5	87.8	47	63.8	0	0	---	0.00	29.900 
19:10	86.3	86.3	87.5	47	63.7	0	0	---	0.00	29.898 
19:15	85.9	85.9	86.9	47	63.3	0	0	---	0.00	29.898 
19:20	85.7	85.7	86.9	48	63.7	0	0	---	0.00	29.897 
19:25	85.3	85.3	87.1	51	65.1	0	0	---	0.00	29.899 
19:30	84.9	84.9	86.6	51	64.7	0	0	---	0.00	29.900 
19:35	84.5	84.5	86.0	51	64.4	0	0	---	0.00	29.902 
19:40	84.1	84.1	86.7	56	66.7	0	0	---	0.00	29.901 
19:45	83.8	83.8	86.0	55	65.9	0	0	---	0.00	29.901 
19:50	83.4	83.4	85.4	55	65.5	0	0	---	0.00	29.902 
19:55	83.0	83.0	84.9	55	65.1	0	0	---	0.00	29.901 
20:00	82.6	82.6	84.5	56	65.3	0	0	---	0.00	29.902 
20:05	82.2	82.2	84.3	58	65.9	0	0	---	0.00	29.899 
20:10	81.8	81.8	84.0	59	66.0	0	0	---	0.00	29.899 
20:15	81.4	81.4	83.4	59	65.7	0	0	---	0.00	29.897 
20:20	81.1	81.1	83.5	62	66.8	0	0	---	0.00	29.897 
20:25	80.7	80.7	82.9	62	66.4	0	0	---	0.00	29.897 
20:30	80.3	80.3	82.4	62	66.1	0	0	---	0.00	29.898 
20:35	79.9	79.9	82.0	63	66.2	0	0	---	0.00	29.899 
20:40	79.6	79.6	81.7	64	66.3	0	0	---	0.00	29.900 
20:45	79.2	79.2	81.2	64	65.9	0	0	---	0.00	29.899 
20:50	79.0	79.0	81.0	65	66.2	0	0	---	0.00	29.899 
20:55	78.6	78.6	80.6	66	66.3	0	0	---	0.00	29.899 
21:00	78.5	78.5	80.5	67	66.6	0	0	---	0.00	29.899 
21:05	78.1	78.1	80.0	67	66.2	0	0	---	0.00	29.901 
21:10	77.9	77.9	79.8	68	66.5	0	0	---	0.00	29.907 
21:15	77.6	77.6	79.5	69	66.6	0	0	---	0.00	29.909 
21:20	77.4	77.4	79.3	70	66.8	0	0	---	0.00	29.911 
21:25	77.2	77.2	79.0	71	67.0	0	0	---	0.00	29.911 
21:30	77.2	77.2	79.0	72	67.5	0	0	---	0.00	29.911 
21:35	77.2	77.2	79.0	72	67.5	0	0	---	0.00	29.911 
21:40	77.0	77.0	78.7	72	67.3	0	0	---	0.00	29.911 
21:45	76.8	76.8	78.5	73	67.5	0	0	---	0.00	29.910 
21:50	76.8	76.8	78.4	74	67.9	0	0	---	0.00	29.911 
21:55	76.7	76.7	78.3	74	67.8	0	0	---	0.00	29.911 
22:00	76.5	76.5	78.0	75	68.0	0	0	---	0.00	29.912 
22:05	76.3	76.3	77.7	75	67.8	0	0	---	0.00	29.912 
22:10	76.1	76.1	77.4	76	68.0	0	1	68	0.00	29.912 
22:15	76.0	76.0	77.3	76	67.9	0	0	---	0.00	29.912 
22:20	76.0	76.0	77.3	76	67.9	0	1	68	0.00	29.912 
22:25	75.8	75.8	77.0	76	67.7	0	0	---	0.00	29.913 
22:30	75.8	75.8	77.0	77	68.1	0	0	---	0.00	29.914 
22:35	75.6	75.6	76.7	77	67.9	0	0	---	0.00	29.915 
22:40	75.4	75.4	76.3	78	68.0	0	0	---	0.00	29.915 
22:45	75.3	75.3	76.2	78	68.0	0	0	---	0.00	29.917 
22:50	75.1	75.1	76.0	78	67.8	0	0	---	0.00	29.920 
22:55	74.9	74.9	74.9	78	67.6	0	0	---	0.00	29.916 
23:00	74.9	74.9	74.9	79	67.9	0	0	---	0.00	29.915 
23:05	74.7	74.7	74.7	79	67.7	0	0	---	0.00	29.914 
23:10	74.7	74.7	74.7	80	68.1	0	0	---	0.00	29.917 
23:15	74.6	74.6	74.6	80	68.0	0	0	---	0.00	29.916 
23:20	74.6	74.6	74.6	80	68.0	0	0	---	0.00	29.917 
23:25	74.4	74.4	74.4	80	67.8	0	0	---	0.00	29.919 
23:30	74.4	74.4	74.4	81	68.2	0	0	---	0.00	29.921 
23:35	74.2	74.2	74.2	81	68.0	0	0	---	0.00	29.924 
23:40	74.0	74.0	74.0	81	67.8	0	0	---	0.00	29.924 
23:45	74.0	74.0	74.0	82	68.1	0	0	---	0.00	29.924 
23:50	73.9	73.9	73.9	82	68.0	0	0	---	0.00	29.925 
23:55	73.7	73.7	73.7	82	67.9	0	0	---	0.00	29.926 

CoCoRaHS
IN-AL-39
A2 Web Hosting
Creative Commons License
GoDaddy
Look for:

loaded 2017-10-17 09:42:05 • last modified 2010-11-18 10:43:29
Privacy PolicyDisclaimer
• wx.awcolley.com is powered by PmWiki v.2002016 •
• all content (unless otherwise noted) © 2017 A W Colley